createdAt,value
2023-03-29T00:01:00.154Z,0.80
2023-03-29T00:03:27.943Z,0.50
2023-03-29T00:06:03.041Z,0.70
2023-03-29T00:08:32.241Z,0.45
2023-03-29T00:10:59.478Z,0.60
2023-03-29T00:13:27.466Z,0.50
2023-03-29T00:15:54.757Z,0.30
2023-03-29T00:18:21.437Z,0.70
2023-03-29T00:20:56.583Z,0.60
2023-03-29T00:23:23.563Z,0.57
2023-03-29T00:25:53.388Z,0.90
2023-03-29T00:28:20.262Z,0.50
2023-03-29T00:30:47.308Z,0.60
2023-03-29T00:33:14.780Z,0.40
2023-03-29T00:35:43.549Z,0.57
2023-03-29T00:38:10.109Z,0.37
2023-03-29T00:40:43.865Z,0.40
2023-03-29T00:43:12.530Z,0.60
2023-03-29T00:45:39.206Z,0.77
2023-03-29T00:48:11.198Z,0.40
2023-03-29T00:50:41.674Z,0.50
2023-03-29T00:53:20.024Z,0.43
2023-03-29T00:55:53.340Z,0.55
2023-03-29T00:58:28.451Z,0.50
2023-03-29T01:01:08.777Z,0.40
2023-03-29T01:03:46.248Z,0.50
2023-03-29T01:06:16.246Z,0.43
2023-03-29T01:08:55.296Z,0.40
2023-03-29T01:11:27.513Z,0.40
2023-03-29T01:14:03.674Z,0.52
2023-03-29T01:16:33.150Z,0.60
2023-03-29T01:19:02.322Z,0.60
2023-03-29T01:21:51.604Z,0.50
2023-03-29T01:24:38.135Z,0.68
2023-03-29T01:27:12.600Z,0.50
2023-03-29T01:29:49.259Z,0.50
2023-03-29T01:32:22.368Z,0.55
2023-03-29T01:35:10.470Z,0.60
2023-03-29T01:37:46.163Z,0.45
2023-03-29T01:40:12.799Z,0.50
2023-03-29T01:42:52.049Z,0.70
2023-03-29T01:45:24.875Z,0.40
2023-03-29T01:47:59.876Z,0.75
2023-03-29T01:50:50.900Z,0.60
2023-03-29T01:53:25.425Z,0.57
2023-03-29T01:55:56.029Z,0.57
2023-03-29T01:58:29.652Z,0.57
2023-03-29T02:00:58.185Z,0.88
2023-03-29T02:03:28.170Z,0.77
2023-03-29T02:05:57.044Z,0.55
2023-03-29T02:08:24.712Z,0.60
2023-03-29T02:10:52.316Z,0.82
2023-03-29T02:13:19.573Z,0.60
2023-03-29T02:15:47.527Z,0.85
2023-03-29T02:18:17.740Z,0.60
2023-03-29T02:20:48.450Z,0.60
2023-03-29T02:23:24.673Z,0.77
2023-03-29T02:25:53.788Z,0.70
2023-03-29T02:28:23.245Z,0.70
2023-03-29T02:31:04.713Z,0.88
2023-03-29T02:33:53.143Z,0.60
2023-03-29T02:36:25.064Z,0.90
2023-03-29T02:38:53.326Z,0.85
2023-03-29T02:41:21.936Z,0.60
2023-03-29T02:43:49.569Z,0.73
2023-03-29T02:46:18.629Z,1.10
2023-03-29T02:48:48.557Z,0.95
2023-03-29T02:51:20.531Z,0.75
2023-03-29T02:53:53.782Z,0.60
2023-03-29T02:56:20.861Z,0.88
2023-03-29T02:58:47.506Z,0.80
2023-03-29T03:01:16.223Z,0.80
2023-03-29T03:03:43.169Z,0.88
2023-03-29T03:06:09.784Z,1.05
2023-03-29T03:08:36.520Z,1.02
2023-03-29T03:11:03.313Z,1.13
2023-03-29T03:13:38.719Z,0.85
2023-03-29T03:16:05.698Z,1.08
2023-03-29T03:18:32.651Z,0.90
2023-03-29T03:21:02.149Z,0.88
2023-03-29T03:23:29.601Z,0.67
2023-03-29T03:25:57.055Z,1.05
2023-03-29T03:28:24.385Z,0.70
2023-03-29T03:30:51.397Z,0.90
2023-03-29T03:33:19.197Z,0.63
2023-03-29T03:35:47.907Z,0.87
2023-03-29T03:38:16.358Z,0.80
2023-03-29T03:40:43.406Z,0.80
2023-03-29T03:43:10.241Z,1.13
2023-03-29T03:45:36.832Z,0.95
2023-03-29T03:48:03.501Z,1.10
2023-03-29T03:50:30.034Z,1.10
2023-03-29T03:52:56.602Z,1.00
2023-03-29T03:55:24.012Z,1.23
2023-03-29T03:57:52.020Z,0.70
2023-03-29T04:00:19.678Z,0.97
2023-03-29T04:02:48.359Z,0.80
2023-03-29T04:05:16.426Z,1.10
2023-03-29T04:07:43.534Z,0.90
2023-03-29T04:10:11.139Z,0.98
2023-03-29T04:12:38.673Z,0.93
2023-03-29T04:15:06.745Z,0.73
2023-03-29T04:17:37.026Z,0.68
2023-03-29T04:20:10.313Z,0.68
2023-03-29T04:22:37.077Z,0.85
2023-03-29T04:25:03.936Z,1.07
2023-03-29T04:27:30.681Z,1.15
2023-03-29T04:29:57.306Z,1.10
2023-03-29T04:32:24.857Z,1.00
2023-03-29T04:34:51.468Z,1.10
2023-03-29T04:37:22.014Z,0.90
2023-03-29T04:39:49.874Z,0.90
2023-03-29T04:42:17.034Z,1.10
2023-03-29T04:44:43.862Z,0.80
2023-03-29T04:47:13.184Z,1.05
2023-03-29T04:49:40.407Z,0.70
2023-03-29T04:52:07.946Z,0.90
2023-03-29T04:54:34.546Z,0.93
2023-03-29T04:57:01.119Z,1.30
2023-03-29T04:59:27.698Z,1.08
2023-03-29T05:01:54.767Z,1.00
2023-03-29T05:04:21.522Z,0.90
2023-03-29T05:06:49.001Z,1.23
2023-03-29T05:09:15.925Z,1.10
2023-03-29T05:11:42.708Z,0.85
2023-03-29T05:14:10.506Z,0.80
2023-03-29T05:16:38.156Z,0.80
2023-03-29T05:19:04.965Z,1.00
2023-03-29T05:21:31.751Z,0.75
2023-03-29T05:23:58.765Z,1.05
2023-03-29T05:26:25.551Z,1.03
2023-03-29T05:28:52.379Z,1.00
2023-03-29T05:31:19.913Z,0.98
2023-03-29T05:33:57.385Z,1.20
2023-03-29T05:36:24.703Z,0.98
2023-03-29T05:38:55.093Z,1.20
2023-03-29T05:41:22.786Z,0.98
2023-03-29T05:43:49.439Z,0.90
2023-03-29T05:46:16.440Z,1.00
2023-03-29T05:48:43.110Z,1.20
2023-03-29T05:51:10.085Z,0.80
2023-03-29T05:53:36.852Z,1.02
2023-03-29T05:56:04.059Z,0.90
2023-03-29T05:58:30.815Z,1.00
2023-03-29T06:00:57.738Z,0.88
2023-03-29T06:03:27.630Z,1.03
2023-03-29T06:05:58.707Z,1.00
2023-03-29T06:08:27.632Z,0.95
2023-03-29T06:11:04.611Z,1.13
2023-03-29T06:13:34.107Z,0.70
2023-03-29T06:16:01.500Z,1.13
2023-03-29T06:18:28.145Z,1.10
2023-03-29T06:20:54.820Z,1.20
2023-03-29T06:23:22.286Z,1.25
2023-03-29T06:25:51.374Z,1.00
2023-03-29T06:28:19.212Z,1.00
2023-03-29T06:30:46.159Z,1.00
2023-03-29T06:33:14.240Z,1.33
2023-03-29T06:35:44.488Z,1.10
2023-03-29T06:38:11.342Z,1.20
2023-03-29T06:40:38.253Z,0.97
2023-03-29T06:43:06.734Z,1.35
2023-03-29T06:45:36.143Z,1.75
2023-03-29T06:48:03.788Z,1.27
2023-03-29T06:50:31.143Z,1.40
2023-03-29T06:52:57.993Z,1.50
2023-03-29T06:55:26.005Z,1.30
2023-03-29T06:57:54.499Z,1.95
2023-03-29T07:00:28.972Z,1.70
2023-03-29T07:02:58.031Z,1.80
2023-03-29T07:05:31.661Z,1.70
2023-03-29T07:08:14.022Z,1.35
2023-03-29T07:10:43.057Z,1.90
2023-03-29T07:13:13.264Z,1.70
2023-03-29T07:15:42.108Z,2.03
2023-03-29T07:18:09.877Z,2.17
2023-03-29T07:20:38.723Z,1.70
2023-03-29T07:23:06.912Z,1.77
2023-03-29T07:25:34.094Z,1.90
2023-03-29T07:28:02.597Z,1.77
2023-03-29T07:30:32.172Z,1.87
2023-03-29T07:33:00.493Z,2.03
2023-03-29T07:35:28.382Z,1.98
2023-03-29T07:37:55.858Z,1.90
2023-03-29T07:40:24.016Z,1.80
2023-03-29T07:42:54.172Z,2.00
2023-03-29T07:45:26.707Z,1.90
2023-03-29T07:47:57.163Z,2.28
2023-03-29T07:50:24.811Z,2.03
2023-03-29T07:52:51.453Z,1.65
2023-03-29T07:55:18.600Z,2.00
2023-03-29T07:57:45.432Z,2.15
2023-03-29T08:00:20.096Z,1.98
2023-03-29T08:02:49.999Z,2.30
2023-03-29T08:05:23.430Z,2.00
2023-03-29T08:07:56.544Z,1.97
2023-03-29T08:10:23.395Z,2.20
2023-03-29T08:12:50.654Z,2.15
2023-03-29T08:15:17.468Z,2.42
2023-03-29T08:17:44.570Z,3.20
2023-03-29T08:20:27.581Z,4.80
2023-03-29T08:22:57.281Z,2.45
2023-03-29T08:25:24.016Z,2.63
2023-03-29T08:27:50.736Z,3.17
2023-03-29T08:30:17.465Z,2.90
2023-03-29T08:32:45.283Z,3.03
2023-03-29T08:35:12.873Z,3.38
2023-03-29T08:37:39.565Z,3.35
2023-03-29T08:40:06.876Z,3.50
2023-03-29T08:42:48.162Z,7.95
2023-03-29T08:45:18.816Z,14.33
2023-03-29T08:47:53.779Z,8.93
2023-03-29T08:50:25.946Z,5.63
2023-03-29T08:52:57.610Z,3.38
2023-03-29T08:55:32.804Z,3.40
2023-03-29T08:58:02.561Z,3.67
2023-03-29T09:00:42.911Z,9.82
2023-03-29T09:03:28.766Z,16.05
2023-03-29T09:06:02.902Z,4.78
2023-03-29T09:08:29.771Z,5.03
2023-03-29T09:11:07.110Z,4.20
2023-03-29T09:13:53.032Z,4.90
2023-03-29T09:16:38.891Z,4.00
2023-03-29T09:19:17.731Z,4.10
2023-03-29T09:22:20.269Z,4.00
2023-03-29T09:25:03.308Z,4.30
2023-03-29T09:27:51.491Z,4.32
2023-03-29T09:30:34.957Z,4.68
2023-03-29T09:33:13.210Z,3.85
2023-03-29T09:35:52.225Z,4.03
2023-03-29T09:38:30.508Z,3.90
2023-03-29T09:41:06.778Z,6.18
2023-03-29T09:43:40.788Z,6.40
2023-03-29T09:46:18.557Z,4.47
2023-03-29T09:48:46.517Z,4.55
2023-03-29T09:51:14.484Z,8.13
2023-03-29T09:53:41.288Z,4.60
2023-03-29T09:56:08.692Z,3.88
2023-03-29T09:58:36.215Z,4.07
2023-03-29T10:01:10.052Z,4.97
2023-03-29T10:03:37.026Z,4.23
2023-03-29T10:06:06.458Z,5.15
2023-03-29T10:08:51.733Z,4.72
2023-03-29T10:11:28.782Z,4.63
2023-03-29T10:14:00.334Z,4.85
2023-03-29T10:16:36.327Z,5.23
2023-03-29T10:19:19.203Z,5.47
2023-03-29T10:21:49.157Z,5.35
2023-03-29T10:24:23.985Z,5.30
2023-03-29T10:26:55.708Z,5.10
2023-03-29T10:29:24.735Z,5.20
2023-03-29T10:31:52.083Z,5.55
2023-03-29T10:34:20.071Z,5.25
2023-03-29T10:36:57.557Z,5.88
2023-03-29T10:39:27.912Z,6.10
2023-03-29T10:41:55.053Z,5.90
2023-03-29T10:44:32.764Z,5.90
2023-03-29T10:47:17.401Z,5.57
2023-03-29T10:49:50.889Z,5.57
2023-03-29T10:52:18.001Z,5.53
2023-03-29T10:54:45.670Z,5.30
2023-03-29T10:57:17.868Z,5.50
2023-03-29T11:00:08.077Z,5.65
2023-03-29T11:02:47.889Z,4.95
2023-03-29T11:05:15.679Z,5.50
2023-03-29T11:07:56.285Z,5.40
2023-03-29T11:10:31.369Z,5.78
2023-03-29T11:13:09.414Z,6.15
2023-03-29T11:15:54.798Z,6.50
2023-03-29T11:18:28.483Z,6.63
2023-03-29T11:21:02.110Z,6.20
2023-03-29T11:23:28.787Z,6.15
2023-03-29T11:26:08.470Z,6.53
2023-03-29T11:28:54.086Z,5.78
2023-03-29T11:31:32.675Z,6.07
2023-03-29T11:34:24.771Z,6.73
2023-03-29T11:36:57.387Z,6.10
2023-03-29T11:39:35.437Z,7.10
2023-03-29T11:42:14.500Z,6.90
2023-03-29T11:44:43.886Z,6.85
2023-03-29T11:47:17.928Z,6.30
2023-03-29T11:49:56.123Z,6.75
2023-03-29T11:52:29.016Z,6.38
2023-03-29T11:55:02.771Z,6.25
2023-03-29T11:57:37.115Z,5.97
2023-03-29T12:00:07.042Z,6.87
2023-03-29T12:02:39.616Z,6.43
2023-03-29T12:05:18.878Z,6.05
2023-03-29T12:07:53.199Z,7.72
2023-03-29T12:10:21.719Z,7.13
2023-03-29T12:13:09.424Z,7.10
2023-03-29T12:15:45.173Z,7.05
2023-03-29T12:18:22.965Z,7.32
2023-03-29T12:20:57.599Z,48.17
2023-03-29T12:23:24.410Z,14.45
2023-03-29T12:26:03.033Z,11.00
2023-03-29T12:28:34.509Z,10.13
2023-03-29T12:31:07.046Z,9.70
2023-03-29T12:33:40.862Z,14.85
2023-03-29T12:36:24.942Z,9.35
2023-03-29T12:38:52.776Z,8.83
2023-03-29T12:41:22.199Z,8.70
2023-03-29T12:43:49.718Z,8.57
2023-03-29T12:46:21.012Z,9.60
2023-03-29T12:48:51.264Z,9.45
2023-03-29T12:51:21.693Z,8.33
2023-03-29T12:53:52.611Z,8.65
2023-03-29T12:56:23.889Z,8.93
2023-03-29T12:58:53.500Z,8.35
2023-03-29T13:01:24.390Z,8.60
2023-03-29T13:04:01.991Z,10.40
2023-03-29T13:06:34.396Z,8.73
2023-03-29T13:09:21.574Z,8.98
2023-03-29T13:12:43.147Z,8.93
2023-03-29T13:15:16.888Z,8.77
2023-03-29T13:18:04.532Z,9.17
2023-03-29T13:20:46.525Z,9.07
2023-03-29T13:23:27.180Z,9.35
2023-03-29T13:26:00.299Z,8.60
2023-03-29T13:28:39.341Z,8.65
2023-03-29T13:31:21.400Z,9.80
2023-03-29T13:34:03.199Z,8.73
2023-03-29T13:36:37.745Z,8.40
2023-03-29T13:39:07.588Z,8.77
2023-03-29T13:41:38.144Z,9.50
2023-03-29T13:44:17.311Z,8.73
2023-03-29T13:46:47.529Z,9.10
2023-03-29T13:49:21.205Z,8.90
2023-03-29T13:52:12.490Z,9.25
2023-03-29T13:54:56.357Z,8.43
2023-03-29T13:57:38.553Z,8.90
2023-03-29T14:00:18.053Z,8.98
2023-03-29T14:02:51.635Z,10.40
2023-03-29T14:05:23.367Z,9.70
2023-03-29T14:07:53.008Z,8.88
2023-03-29T14:10:26.147Z,9.70
2023-03-29T14:12:53.811Z,9.75
2023-03-29T14:15:25.745Z,9.57
2023-03-29T14:17:58.299Z,9.02
2023-03-29T14:20:27.517Z,8.75
2023-03-29T14:22:54.201Z,9.07
2023-03-29T14:25:29.472Z,9.18
2023-03-29T14:27:56.425Z,9.30
2023-03-29T14:30:28.237Z,8.80
2023-03-29T14:32:56.844Z,8.55
2023-03-29T14:35:31.445Z,8.90
2023-03-29T14:37:59.567Z,8.45
2023-03-29T14:40:27.695Z,8.73
2023-03-29T14:42:55.201Z,7.50
2023-03-29T14:45:23.914Z,8.15
2023-03-29T14:47:51.588Z,7.80
2023-03-29T14:50:24.529Z,7.95
2023-03-29T14:52:52.476Z,8.00
2023-03-29T14:55:23.846Z,7.82
2023-03-29T14:57:54.273Z,7.72
2023-03-29T15:00:28.116Z,7.43
2023-03-29T15:02:58.053Z,7.88
2023-03-29T15:05:30.306Z,7.75
2023-03-29T15:07:57.072Z,7.50
2023-03-29T15:10:24.175Z,8.00
2023-03-29T15:12:51.336Z,7.47
2023-03-29T15:15:18.131Z,7.03
2023-03-29T15:17:52.358Z,7.75
2023-03-29T15:20:26.054Z,7.00
2023-03-29T15:22:56.569Z,6.47
2023-03-29T15:25:27.133Z,6.40
2023-03-29T15:28:00.239Z,6.38
2023-03-29T15:30:39.513Z,6.28
2023-03-29T15:33:16.450Z,6.05
2023-03-29T15:35:48.420Z,6.15
2023-03-29T15:38:14.952Z,5.10
2023-03-29T15:40:41.580Z,6.25
2023-03-29T15:43:08.201Z,5.13
2023-03-29T15:45:35.040Z,5.05
2023-03-29T15:48:04.685Z,5.35
2023-03-29T15:50:32.539Z,5.07
2023-03-29T15:53:08.670Z,4.80
2023-03-29T15:55:44.756Z,4.40
2023-03-29T15:58:17.193Z,4.60
2023-03-29T16:00:48.628Z,4.50
2023-03-29T16:03:16.160Z,7.13
2023-03-29T16:05:43.982Z,5.50
2023-03-29T16:08:11.994Z,5.10
2023-03-29T16:10:39.344Z,4.90
2023-03-29T16:13:06.423Z,4.40
2023-03-29T16:15:34.622Z,4.77
2023-03-29T16:18:01.221Z,4.22
2023-03-29T16:20:27.810Z,3.53
2023-03-29T16:22:55.182Z,3.50
2023-03-29T16:25:24.235Z,3.67
2023-03-29T16:27:52.576Z,4.20
2023-03-29T16:30:19.810Z,3.90
2023-03-29T16:32:46.451Z,4.13
2023-03-29T16:35:20.590Z,3.97
2023-03-29T16:37:48.519Z,4.90
2023-03-29T16:40:16.312Z,4.20
2023-03-29T16:42:42.900Z,4.30
2023-03-29T16:45:15.110Z,3.42
2023-03-29T16:47:48.139Z,3.60
2023-03-29T16:50:18.848Z,3.05
2023-03-29T16:52:48.931Z,4.60
2023-03-29T16:55:18.985Z,5.13
2023-03-29T16:57:47.967Z,12.02
2023-03-29T17:00:16.430Z,9.13
2023-03-29T17:02:44.600Z,21.27
2023-03-29T17:05:12.869Z,5.40
2023-03-29T17:07:39.705Z,4.20
2023-03-29T17:10:08.236Z,4.07
2023-03-29T17:12:35.533Z,3.45
2023-03-29T17:15:02.946Z,3.20
2023-03-29T17:17:29.576Z,3.30
2023-03-29T17:19:56.735Z,2.80
2023-03-29T17:22:25.279Z,2.95
2023-03-29T17:24:51.925Z,2.72
2023-03-29T17:27:19.013Z,2.88
2023-03-29T17:29:45.640Z,3.37
2023-03-29T17:32:12.203Z,3.10
2023-03-29T17:34:38.940Z,2.95
2023-03-29T17:37:05.611Z,2.90
2023-03-29T17:39:33.152Z,3.00
2023-03-29T17:41:59.723Z,3.27
2023-03-29T17:44:27.060Z,3.08
2023-03-29T17:46:53.720Z,2.78
2023-03-29T17:49:20.773Z,3.13
2023-03-29T17:51:47.491Z,2.90
2023-03-29T17:54:13.970Z,2.73
2023-03-29T17:56:40.800Z,3.13
2023-03-29T17:59:07.355Z,2.83
2023-03-29T18:01:34.875Z,3.13
2023-03-29T18:04:02.427Z,3.08
2023-03-29T18:06:29.071Z,2.80
2023-03-29T18:08:56.734Z,2.88
2023-03-29T18:11:24.673Z,2.58
2023-03-29T18:13:52.575Z,3.00
2023-03-29T18:16:21.616Z,3.00
2023-03-29T18:18:48.540Z,2.83
2023-03-29T18:21:16.640Z,2.60
2023-03-29T18:23:47.069Z,3.00
2023-03-29T18:26:15.402Z,3.42
2023-03-29T18:28:43.914Z,3.17
2023-03-29T18:31:10.582Z,3.17
2023-03-29T18:33:37.299Z,3.28
2023-03-29T18:36:09.170Z,3.05
2023-03-29T18:38:40.383Z,3.28
2023-03-29T18:41:08.775Z,3.40
2023-03-29T18:43:37.050Z,3.33
2023-03-29T18:46:04.038Z,3.45
2023-03-29T18:48:31.344Z,4.50
2023-03-29T18:50:58.461Z,3.60
2023-03-29T18:53:39.319Z,3.42
2023-03-29T18:56:06.662Z,3.87
2023-03-29T18:58:33.630Z,4.20
2023-03-29T19:01:02.871Z,4.28
2023-03-29T19:03:30.126Z,4.20
2023-03-29T19:05:56.937Z,4.10
2023-03-29T19:08:25.834Z,3.70
2023-03-29T19:10:53.631Z,4.70
2023-03-29T19:13:23.480Z,4.50
2023-03-29T19:15:51.835Z,4.47
2023-03-29T19:18:18.540Z,4.25
2023-03-29T19:20:45.561Z,4.27
2023-03-29T19:23:14.206Z,4.90
2023-03-29T19:25:40.805Z,4.60
2023-03-29T19:28:08.671Z,5.55
2023-03-29T19:30:36.461Z,4.35
2023-03-29T19:33:03.205Z,5.10
2023-03-29T19:35:30.039Z,4.50
2023-03-29T19:37:57.728Z,5.30
2023-03-29T19:40:24.485Z,5.32
2023-03-29T19:42:51.146Z,5.03
2023-03-29T19:45:18.136Z,5.13
2023-03-29T19:47:47.753Z,4.78
2023-03-29T19:50:14.498Z,4.68
2023-03-29T19:52:41.293Z,4.00
2023-03-29T19:55:08.410Z,3.97
2023-03-29T19:57:35.093Z,4.47
2023-03-29T20:00:02.024Z,4.18
2023-03-29T20:02:28.725Z,4.30
2023-03-29T20:04:57.772Z,4.35
2023-03-29T20:07:24.384Z,3.70
2023-03-29T20:09:51.035Z,4.30
2023-03-29T20:12:17.762Z,4.18
2023-03-29T20:14:44.383Z,4.57
2023-03-29T20:17:12.127Z,4.22
2023-03-29T20:19:43.954Z,4.43
2023-03-29T20:22:12.214Z,4.57
2023-03-29T20:24:38.866Z,4.55
2023-03-29T20:27:05.527Z,5.20
2023-03-29T20:29:33.231Z,4.07
2023-03-29T20:32:02.135Z,4.50
2023-03-29T20:34:28.996Z,4.70
2023-03-29T20:37:00.961Z,4.40
2023-03-29T20:39:31.738Z,3.75
2023-03-29T20:41:59.066Z,3.88
2023-03-29T20:44:28.416Z,4.50
2023-03-29T20:47:03.411Z,4.47
2023-03-29T20:49:37.074Z,4.57
2023-03-29T20:52:10.788Z,4.75
2023-03-29T20:54:38.770Z,3.60
2023-03-29T20:57:06.848Z,4.45
2023-03-29T20:59:38.077Z,3.90
2023-03-29T21:02:04.873Z,3.40
2023-03-29T21:04:31.659Z,3.97
2023-03-29T21:07:00.371Z,3.70
2023-03-29T21:09:28.265Z,5.22
2023-03-29T21:11:54.907Z,3.70
2023-03-29T21:14:22.225Z,3.80
2023-03-29T21:16:49.384Z,6.53
2023-03-29T21:19:16.591Z,8.10
2023-03-29T21:21:44.869Z,4.45
2023-03-29T21:24:13.816Z,11.40
2023-03-29T21:26:41.186Z,5.90
2023-03-29T21:29:08.044Z,4.38
2023-03-29T21:31:35.926Z,3.58
2023-03-29T21:34:02.786Z,3.42
2023-03-29T21:36:29.422Z,3.20
2023-03-29T21:39:06.919Z,3.50
2023-03-29T21:41:33.840Z,3.40
2023-03-29T21:44:00.720Z,3.03
2023-03-29T21:46:27.454Z,3.70
2023-03-29T21:48:54.045Z,2.77
2023-03-29T21:51:20.740Z,3.22
2023-03-29T21:53:47.507Z,3.10
2023-03-29T21:56:14.092Z,3.22
2023-03-29T21:58:40.987Z,3.10
2023-03-29T22:01:10.037Z,2.93
2023-03-29T22:03:37.841Z,2.50
2023-03-29T22:06:09.358Z,2.55
2023-03-29T22:08:38.977Z,3.03
2023-03-29T22:11:08.606Z,2.95
2023-03-29T22:13:35.624Z,3.00
2023-03-29T22:16:03.951Z,3.00
2023-03-29T22:18:43.236Z,3.03
2023-03-29T22:21:13.742Z,2.83
2023-03-29T22:23:41.830Z,3.15
2023-03-29T22:26:12.208Z,2.90
2023-03-29T22:28:39.611Z,3.35
2023-03-29T22:31:10.795Z,3.38
2023-03-29T22:33:48.642Z,3.00
2023-03-29T22:36:18.921Z,2.60
2023-03-29T22:38:47.829Z,2.80
2023-03-29T22:41:15.818Z,2.83
2023-03-29T22:43:42.859Z,3.10
2023-03-29T22:46:11.707Z,2.40
2023-03-29T22:48:38.845Z,2.88
2023-03-29T22:51:06.345Z,2.87
2023-03-29T22:53:34.805Z,2.42
2023-03-29T22:56:01.562Z,2.38
2023-03-29T22:58:29.522Z,2.47
2023-03-29T23:00:57.611Z,2.45
2023-03-29T23:03:25.508Z,2.17
2023-03-29T23:05:54.997Z,2.30
2023-03-29T23:08:22.687Z,2.47
2023-03-29T23:10:49.298Z,2.13
2023-03-29T23:13:20.547Z,3.00
2023-03-29T23:15:48.928Z,2.00
2023-03-29T23:18:18.339Z,2.15
2023-03-29T23:20:47.270Z,2.13
2023-03-29T23:23:16.498Z,2.05
2023-03-29T23:25:45.736Z,1.60
2023-03-29T23:28:13.847Z,1.87
2023-03-29T23:30:41.120Z,1.88
2023-03-29T23:33:07.843Z,2.00
2023-03-29T23:35:34.586Z,1.85
2023-03-29T23:38:01.149Z,2.10
2023-03-29T23:40:27.934Z,2.37
2023-03-29T23:43:00.521Z,1.80
2023-03-29T23:45:28.040Z,1.88
2023-03-29T23:47:56.107Z,1.88
2023-03-29T23:50:23.380Z,2.22
2023-03-29T23:52:51.496Z,2.37
2023-03-29T23:55:18.942Z,1.70
2023-03-29T23:57:45.704Z,2.33
